Pagrindinis puslapis
METAR-TAF:

METAR-TAF

Oro uostai :

Sandakan, Malaizija

platuma: 05-54N, ilguma: 118-04E, Aukštis: 12 m

Dabartinis oras

Ataskaita buvo paskelbta 37 minutes, ne 08:00 UTC
Vėjas 11 kt iš Šiaurės/Šiaurės Rytų, svyruoja nuo Šiaurės ir Rytų/Šiaurės Rytų
Temperatūra 29°C
Drėgmė 70%
Slėgis 1011 hPa
Matomumas 10 km arba daugiau
Mažai debesys ne aukštis 1500 ft

METAR: WBKS 230800Z 03011KT 350V060 9999 FEW015 29/23 Q1011

Laikas: 16:37 (08:37 UTC)

Prognozė

Ataskaita buvo paskelbta 3 valandos ir 37 minutes, ne 05:00 UTC
Prognozė galioja nuo 23 metu 06 UTC su 24 metu 06 UTC
Vėjas 10 kt iš Šiaurės Rytų
Matomumas 10 km arba daugiau
Mažai debesys ne aukštis 1600 ft

TAF: WBKS 230500Z 2306/2406 04010KT 9999 FEW016

Orai ataskaitas ir orų prognozės (METAR, TAF).

turimą stotys yra geltonos ir raudonos taškus žemėlapyje.

Perkelti pele per norėdami pamatyti stoties vardą.

Tada spustelėkite, norėdami matyti oro stebėjimo ir prognozės.

Norėdami pakeisti žemėlapį: spustelėkite ant žalios mygtukų su juodo kryžiaus žemyn,; žalią mygtuką su brūkšneliu, jei norite nutolinti; arba žalių rodyklių gretimoms žemėlapius.


METAR-TAF: